createdAt,value
2023-05-14T00:03:00.683Z,12
2023-05-14T00:13:02.512Z,11.6
2023-05-14T00:23:04.721Z,11.5
2023-05-14T00:33:06.596Z,11.6
2023-05-14T00:43:08.366Z,11.5
2023-05-14T00:53:10.173Z,11.4
2023-05-14T01:03:12.534Z,11.1
2023-05-14T01:13:14.309Z,10.8
2023-05-14T01:23:16.354Z,10.7
2023-05-14T01:33:18.227Z,10.5
2023-05-14T01:43:20.317Z,10.5
2023-05-14T01:53:22.736Z,10.5
2023-05-14T02:03:24.568Z,10.4
2023-05-14T02:13:26.835Z,10.3
2023-05-14T02:23:38.194Z,10.2
2023-05-14T02:33:31.405Z,10
2023-05-14T02:43:33.973Z,9.9
2023-05-14T02:53:36.193Z,10
2023-05-14T03:03:38.513Z,9.7
2023-05-14T03:13:40.473Z,9.7
2023-05-14T03:23:42.141Z,9.6
2023-05-14T03:33:44.864Z,9.6
2023-05-14T03:43:46.579Z,9.4
2023-05-14T03:53:48.784Z,9.3
2023-05-14T04:03:51.106Z,9.2
2023-05-14T04:13:53.185Z,9.4
2023-05-14T04:23:55.111Z,9.4
2023-05-14T05:04:04.820Z,9.8
2023-05-14T05:24:08.645Z,10.1
2023-05-14T05:44:12.450Z,10.6
2023-05-14T06:04:16.915Z,10.8
2023-05-14T06:24:20.840Z,11.7
2023-05-14T06:44:25.365Z,12.5
2023-05-14T07:04:29.546Z,13.3
2023-05-14T07:24:34.634Z,14.1
2023-05-14T07:44:48.924Z,14.9
2023-05-14T08:24:57.597Z,16.8
2023-05-14T08:34:59.923Z,17.3
2023-05-14T08:45:01.781Z,17.6
2023-05-14T08:55:03.759Z,17.5
2023-05-14T09:05:05.524Z,17.7
2023-05-14T09:15:07.298Z,18
2023-05-14T09:25:09.649Z,18.1
2023-05-14T09:35:11.992Z,18.2
2023-05-14T09:45:14.257Z,18.5
2023-05-14T09:55:16.492Z,18.8
2023-05-14T10:05:18.436Z,18.6
2023-05-14T10:15:20.772Z,18.9
2023-05-14T10:25:23.064Z,19.2
2023-05-14T10:35:24.807Z,18.9
2023-05-14T10:45:27.373Z,19.7
2023-05-14T10:55:29.070Z,19.5
2023-05-14T11:05:31.298Z,19.6
2023-05-14T11:15:33.368Z,20.1
2023-05-14T11:25:35.609Z,19.9
2023-05-14T11:45:39.791Z,20
2023-05-14T11:55:41.680Z,20.1
2023-05-14T12:05:43.337Z,20.5
2023-05-14T12:15:45.429Z,20.5
2023-05-14T12:25:47.397Z,20.5
2023-05-14T12:35:49.577Z,20.6
2023-05-14T12:45:51.769Z,20.4
2023-05-14T12:55:53.755Z,20.7
2023-05-14T13:05:55.827Z,21
2023-05-14T13:15:58.459Z,20.5
2023-05-14T13:26:00.169Z,20.9
2023-05-14T13:36:02.108Z,21.2
2023-05-14T13:46:04.147Z,20.8
2023-05-14T13:56:06.212Z,20.9
2023-05-14T14:06:08.409Z,21
2023-05-14T14:16:10.088Z,21.4
2023-05-14T14:26:12.588Z,21.4
2023-05-14T14:36:14.378Z,22.2
2023-05-14T14:46:17.076Z,21.6
2023-05-14T15:06:21.550Z,21.1
2023-05-14T15:16:23.798Z,21
2023-05-14T15:26:26.335Z,21.2
2023-05-14T15:36:28.453Z,21.2
2023-05-14T15:46:31.173Z,20.8
2023-05-14T15:56:33.255Z,20.9
2023-05-14T16:06:35.598Z,20.7
2023-05-14T16:16:38.265Z,20.4
2023-05-14T16:26:40.123Z,20.4
2023-05-14T16:36:41.974Z,20.3
2023-05-14T16:46:44.488Z,20.4
2023-05-14T16:56:46.688Z,20.2
2023-05-14T17:06:48.906Z,20.2
2023-05-14T17:16:50.855Z,20
2023-05-14T17:26:52.596Z,19.8
2023-05-14T17:36:54.532Z,19.8
2023-05-14T17:46:57.113Z,19.9
2023-05-14T17:56:58.949Z,19.6
2023-05-14T18:07:00.940Z,19.3
2023-05-14T18:17:03.046Z,18.8
2023-05-14T18:27:05.332Z,18.6
2023-05-14T18:37:07.106Z,18.5
2023-05-14T18:47:09.576Z,18.5
2023-05-14T19:07:14.392Z,18.1
2023-05-14T19:17:17.763Z,18
2023-05-14T19:27:18.029Z,17.8
2023-05-14T19:37:20.877Z,17.8
2023-05-14T19:47:22.650Z,17.6
2023-05-14T19:57:24.510Z,17.6
2023-05-14T20:07:27.058Z,17.5
2023-05-14T20:17:28.741Z,17
2023-05-14T20:27:31.249Z,16.6
2023-05-14T20:47:35.159Z,16.6
2023-05-14T20:57:37.811Z,16.5
2023-05-14T21:07:40.469Z,16.2
2023-05-14T21:17:43.055Z,16.1
2023-05-14T21:27:45.454Z,16.1
2023-05-14T21:37:47.419Z,15.9
2023-05-14T21:57:51.002Z,15.8
2023-05-14T22:07:53.708Z,15.6
2023-05-14T22:17:55.319Z,15.4
2023-05-14T22:27:57.721Z,15.3
2023-05-14T22:37:59.914Z,14.9
2023-05-14T22:48:01.575Z,14.7
2023-05-14T22:58:03.626Z,14.5
2023-05-14T23:08:06.057Z,14.3
2023-05-14T23:18:08.008Z,14.2
2023-05-14T23:28:09.758Z,14.1
2023-05-14T23:38:11.598Z,13.9
2023-05-14T23:48:14.119Z,13.7
2023-05-14T23:58:16.456Z,13.7
